createdAt,value
2019-04-03T00:00:37.929Z,24.20
2019-04-03T00:03:07.772Z,24.22
2019-04-03T00:05:37.228Z,24.22
2019-04-03T00:08:07.204Z,24.23
2019-04-03T00:10:38.093Z,24.20
2019-04-03T00:13:10.371Z,24.24
2019-04-03T00:15:39.000Z,24.21
2019-04-03T00:18:08.433Z,24.18
2019-04-03T00:20:37.886Z,24.16
2019-04-03T00:23:07.408Z,24.21
2019-04-03T00:25:36.923Z,24.20
2019-04-03T00:28:06.545Z,24.18
2019-04-03T00:30:36.024Z,24.20
2019-04-03T00:33:05.584Z,24.17
2019-04-03T00:35:35.009Z,24.21
2019-04-03T00:38:04.448Z,24.17
2019-04-03T00:40:33.899Z,24.19
2019-04-03T00:43:03.335Z,24.18
2019-04-03T00:45:32.779Z,24.16
2019-04-03T00:48:02.204Z,24.17
2019-04-03T00:50:31.654Z,24.16
2019-04-03T00:53:01.103Z,24.19
2019-04-03T00:55:30.579Z,24.18
2019-04-03T00:58:00.020Z,24.18
2019-04-03T01:00:30.556Z,24.14
2019-04-03T01:02:59.996Z,24.14
2019-04-03T01:05:29.553Z,24.11
2019-04-03T01:07:59.830Z,24.16
2019-04-03T01:10:30.264Z,24.13
2019-04-03T01:13:01.761Z,24.10
2019-04-03T01:15:31.668Z,24.14
2019-04-03T01:18:04.240Z,24.11
2019-04-03T01:20:32.733Z,24.13
2019-04-03T01:23:02.228Z,24.10
2019-04-03T01:25:31.711Z,24.12
2019-04-03T01:28:01.094Z,24.11
2019-04-03T01:30:30.540Z,24.11
2019-04-03T01:33:00.038Z,24.11
2019-04-03T01:35:29.476Z,24.09
2019-04-03T01:37:58.910Z,24.12
2019-04-03T01:40:28.352Z,24.13
2019-04-03T01:42:57.806Z,24.11
2019-04-03T01:45:27.241Z,24.08
2019-04-03T01:47:58.137Z,24.09
2019-04-03T01:50:28.652Z,24.08
2019-04-03T01:52:58.580Z,24.07
2019-04-03T01:55:28.033Z,24.04
2019-04-03T01:57:57.463Z,24.06
2019-04-03T02:00:27.218Z,24.06
2019-04-03T02:02:57.062Z,24.03
2019-04-03T02:05:27.204Z,24.01
2019-04-03T02:07:56.697Z,24.04
2019-04-03T02:10:26.123Z,24.01
2019-04-03T02:12:55.557Z,24.04
2019-04-03T02:15:25.095Z,24.03
2019-04-03T02:17:55.228Z,23.85
2019-04-03T02:20:26.517Z,24.03
2019-04-03T02:22:55.951Z,24.00
2019-04-03T02:25:25.374Z,24.02
2019-04-03T02:27:54.809Z,24.02
2019-04-03T02:30:24.275Z,24.04
2019-04-03T02:32:56.344Z,24.03
2019-04-03T02:35:24.849Z,24.01
2019-04-03T02:37:54.641Z,23.99
2019-04-03T02:40:24.130Z,24.05
2019-04-03T02:42:53.562Z,24.02
2019-04-03T02:45:24.312Z,24.01
2019-04-03T02:47:54.211Z,24.03
2019-04-03T02:50:26.666Z,24.00
2019-04-03T02:52:58.016Z,24.01
2019-04-03T02:55:27.289Z,24.04
2019-04-03T02:57:56.806Z,24.04
2019-04-03T03:00:26.252Z,24.00
2019-04-03T03:02:55.684Z,23.98
2019-04-03T03:05:28.383Z,24.00
2019-04-03T03:07:56.367Z,23.91
2019-04-03T03:10:25.813Z,23.93
2019-04-03T03:12:59.891Z,23.95
2019-04-03T03:15:27.963Z,23.92
2019-04-03T03:17:57.461Z,23.88
2019-04-03T03:20:26.985Z,23.85
2019-04-03T03:22:56.396Z,23.82
2019-04-03T03:25:26.191Z,23.76
2019-04-03T03:27:56.285Z,23.76
2019-04-03T03:30:39.497Z,23.83
2019-04-03T03:33:21.854Z,23.83
2019-04-03T03:35:31.453Z,23.80
2019-04-03T03:38:00.099Z,23.80
2019-04-03T03:40:29.716Z,23.83
2019-04-03T03:42:59.358Z,23.84
2019-04-03T03:45:28.804Z,23.85
2019-04-03T03:47:58.335Z,23.84
2019-04-03T03:50:27.765Z,23.74
2019-04-03T03:52:57.224Z,23.64
2019-04-03T03:55:26.652Z,23.53
2019-04-03T03:57:56.490Z,23.49
2019-04-03T04:00:25.936Z,23.53
2019-04-03T04:02:55.403Z,23.56
2019-04-03T04:05:25.003Z,23.57
2019-04-03T04:07:54.462Z,23.60
2019-04-03T04:10:25.891Z,23.54
2019-04-03T04:12:56.005Z,23.61
2019-04-03T04:15:28.584Z,23.50
2019-04-03T04:17:56.950Z,23.61
2019-04-03T04:20:26.719Z,23.54
2019-04-03T04:22:56.439Z,23.21
2019-04-03T04:25:25.884Z,22.81
2019-04-03T04:27:55.319Z,22.60
2019-04-03T04:30:24.782Z,22.48
2019-04-03T04:32:54.367Z,22.43
2019-04-03T04:35:23.771Z,22.31
2019-04-03T04:37:55.420Z,22.25
2019-04-03T04:40:24.461Z,22.37
2019-04-03T04:42:53.907Z,22.57
2019-04-03T04:45:23.353Z,22.77
2019-04-03T04:47:52.820Z,22.84
2019-04-03T04:50:25.762Z,22.83
2019-04-03T04:52:56.719Z,22.93
2019-04-03T04:55:26.445Z,22.91
2019-04-03T04:57:55.878Z,22.87
2019-04-03T05:00:25.339Z,22.93
2019-04-03T05:02:54.796Z,23.00
2019-04-03T05:05:26.408Z,23.04
2019-04-03T05:07:55.399Z,23.01
2019-04-03T05:10:24.886Z,23.01
2019-04-03T05:12:54.343Z,23.00
2019-04-03T05:15:24.128Z,23.00
2019-04-03T05:17:53.523Z,23.04
2019-04-03T05:20:22.978Z,23.04
2019-04-03T05:22:54.548Z,23.02
2019-04-03T05:25:23.686Z,23.06
2019-04-03T05:27:53.120Z,23.07
2019-04-03T05:30:30.008Z,23.09
2019-04-03T05:32:59.691Z,23.09
2019-04-03T05:35:29.134Z,23.05
2019-04-03T05:37:58.585Z,23.09
2019-04-03T05:40:28.033Z,23.12
2019-04-03T05:42:58.112Z,23.13
2019-04-03T05:45:28.739Z,23.15
2019-04-03T05:47:58.207Z,23.13
2019-04-03T05:50:27.960Z,23.15
2019-04-03T05:52:57.370Z,23.15
2019-04-03T05:55:26.815Z,23.13
2019-04-03T05:57:56.522Z,23.11
2019-04-03T06:00:26.698Z,23.15
2019-04-03T06:02:57.730Z,23.18
2019-04-03T06:05:27.298Z,23.17
2019-04-03T06:07:56.743Z,23.13
2019-04-03T06:10:27.933Z,23.18
2019-04-03T06:12:57.461Z,23.10
2019-04-03T06:15:26.890Z,23.15
2019-04-03T06:17:56.446Z,23.13
2019-04-03T06:20:25.941Z,23.17
2019-04-03T06:22:55.382Z,23.21
2019-04-03T06:25:29.034Z,23.17
2019-04-03T06:27:56.053Z,23.21
2019-04-03T06:30:25.943Z,23.18
2019-04-03T06:32:55.752Z,23.16
2019-04-03T06:35:25.183Z,23.16
2019-04-03T06:37:54.749Z,23.14
2019-04-03T06:40:24.266Z,23.22
2019-04-03T06:42:53.727Z,23.27
2019-04-03T06:45:24.038Z,23.29
2019-04-03T06:47:54.476Z,23.33
2019-04-03T06:50:23.886Z,23.34
2019-04-03T06:52:53.720Z,23.28
2019-04-03T06:55:25.346Z,23.29
2019-04-03T06:57:54.402Z,23.31
2019-04-03T07:00:23.843Z,23.36
2019-04-03T07:02:53.256Z,23.32
2019-04-03T07:05:23.137Z,23.33
2019-04-03T07:07:52.576Z,23.30
2019-04-03T07:10:25.644Z,23.32
2019-04-03T07:12:53.492Z,23.25
2019-04-03T07:15:24.563Z,23.28
2019-04-03T07:17:54.087Z,23.28
2019-04-03T07:20:23.966Z,23.28
2019-04-03T07:22:53.646Z,23.27
2019-04-03T07:25:23.582Z,23.30
2019-04-03T07:27:52.992Z,23.26
2019-04-03T07:30:22.506Z,23.25
2019-04-03T07:32:51.888Z,23.20
2019-04-03T07:35:21.316Z,23.22
2019-04-03T07:37:51.527Z,23.20
2019-04-03T07:40:21.552Z,23.14
2019-04-03T07:42:51.172Z,23.18
2019-04-03T07:45:20.644Z,23.18
2019-04-03T07:47:50.083Z,23.18
2019-04-03T07:50:19.519Z,23.18
2019-04-03T07:52:49.084Z,23.16
2019-04-03T07:55:18.689Z,23.18
2019-04-03T07:57:48.395Z,23.18
2019-04-03T08:00:18.016Z,23.18
2019-04-03T08:02:49.627Z,23.19
2019-04-03T08:05:18.725Z,23.17
2019-04-03T08:07:48.632Z,23.17
2019-04-03T08:10:18.081Z,23.18
2019-04-03T08:12:47.529Z,23.15
2019-04-03T08:15:17.033Z,23.18
2019-04-03T08:17:47.815Z,23.22
2019-04-03T08:20:19.604Z,23.27
2019-04-03T08:22:48.826Z,23.28
2019-04-03T08:25:18.491Z,23.25
2019-04-03T08:27:48.184Z,23.29
2019-04-03T08:30:17.905Z,23.25
2019-04-03T08:32:48.894Z,23.26
2019-04-03T08:35:21.675Z,23.26
2019-04-03T08:37:50.054Z,23.27
2019-04-03T08:40:20.434Z,23.27
2019-04-03T08:42:50.589Z,23.27
2019-04-03T08:45:21.718Z,23.27
2019-04-03T08:47:51.428Z,23.29
2019-04-03T08:50:21.012Z,23.30
2019-04-03T08:52:50.729Z,23.27
2019-04-03T08:55:20.463Z,23.27
2019-04-03T08:57:52.467Z,23.27
2019-04-03T09:00:21.243Z,23.24
2019-04-03T09:02:50.810Z,23.25
2019-04-03T09:05:20.574Z,23.26
2019-04-03T09:07:50.055Z,23.30
2019-04-03T09:10:19.515Z,23.27
2019-04-03T09:12:49.056Z,23.29
2019-04-03T09:15:18.453Z,23.26
2019-04-03T09:17:48.115Z,23.28
2019-04-03T09:20:19.312Z,23.31
2019-04-03T09:22:48.767Z,23.31
2019-04-03T09:25:18.743Z,23.32
2019-04-03T09:27:48.296Z,23.33
2019-04-03T09:30:19.482Z,23.36
2019-04-03T09:32:48.914Z,23.36
2019-04-03T09:35:18.383Z,23.40
2019-04-03T09:37:47.869Z,23.38
2019-04-03T09:40:17.914Z,23.39
2019-04-03T09:42:47.645Z,23.39
2019-04-03T09:45:17.084Z,23.39
2019-04-03T09:47:46.772Z,23.41
2019-04-03T09:50:17.723Z,23.40
2019-04-03T09:52:49.957Z,23.40
2019-04-03T09:55:18.742Z,23.38
2019-04-03T09:57:48.189Z,23.40
2019-04-03T10:00:17.671Z,23.41
2019-04-03T10:02:50.776Z,23.48
2019-04-03T10:05:18.364Z,23.52
2019-04-03T10:07:47.919Z,23.57
2019-04-03T10:10:17.637Z,23.53
2019-04-03T10:12:48.487Z,23.52
2019-04-03T10:15:19.144Z,23.50
2019-04-03T10:17:48.934Z,23.53
2019-04-03T10:20:18.908Z,23.52
2019-04-03T10:22:48.728Z,23.51
2019-04-03T10:25:18.364Z,23.52
2019-04-03T10:27:47.839Z,23.52
2019-04-03T10:30:20.298Z,23.55
2019-04-03T10:32:49.456Z,23.59
2019-04-03T10:35:18.915Z,23.73
2019-04-03T10:37:48.743Z,23.76
2019-04-03T10:40:18.219Z,23.79
2019-04-03T10:42:47.687Z,23.75
2019-04-03T10:45:17.213Z,23.71
2019-04-03T10:47:46.900Z,23.66
2019-04-03T10:50:16.339Z,23.66
2019-04-03T10:52:48.969Z,23.66
2019-04-03T10:55:17.436Z,23.67
2019-04-03T10:57:47.181Z,23.68
2019-04-03T11:00:16.677Z,23.69
2019-04-03T11:02:46.166Z,23.70
2019-04-03T11:05:16.383Z,23.65
2019-04-03T11:07:45.887Z,23.68
2019-04-03T11:10:15.535Z,23.69
2019-04-03T11:12:44.979Z,23.67
2019-04-03T11:15:14.738Z,23.69
2019-04-03T11:17:44.152Z,23.67
2019-04-03T11:20:14.058Z,23.69
2019-04-03T11:22:43.921Z,23.74
2019-04-03T11:27:46.180Z,23.77
2019-04-03T11:30:21.544Z,23.78
2019-04-03T11:30:55.592Z,23.76
2019-04-03T11:32:48.332Z,23.76
2019-04-03T11:35:21.070Z,23.77
2019-04-03T11:37:49.627Z,23.82
2019-04-03T11:40:19.415Z,23.79
2019-04-03T11:42:48.892Z,23.79
2019-04-03T11:45:18.336Z,23.80
2019-04-03T11:47:47.796Z,23.81
2019-04-03T11:50:17.245Z,23.76
2019-04-03T11:52:46.691Z,23.81
2019-04-03T11:55:16.157Z,23.81
2019-04-03T11:57:47.371Z,23.83
2019-04-03T12:00:22.983Z,23.78
2019-04-03T12:02:53.285Z,23.81
2019-04-03T12:05:22.787Z,23.81
2019-04-03T12:07:52.260Z,23.81
2019-04-03T12:10:21.669Z,23.78
2019-04-03T12:12:51.352Z,23.82
2019-04-03T12:15:22.012Z,23.82
2019-04-03T12:17:51.832Z,23.81
2019-04-03T12:20:21.558Z,23.80
2019-04-03T12:22:51.997Z,23.80
2019-04-03T12:25:22.160Z,23.77
2019-04-03T12:27:51.606Z,23.76
2019-04-03T12:30:21.149Z,23.73
2019-04-03T12:32:50.622Z,23.77
2019-04-03T12:35:20.083Z,23.77
2019-04-03T12:37:50.270Z,23.74
2019-04-03T12:40:20.648Z,23.77
2019-04-03T12:42:50.136Z,23.85
2019-04-03T12:45:19.670Z,23.92
2019-04-03T12:47:49.108Z,23.93
2019-04-03T12:50:18.544Z,23.93
2019-04-03T12:52:47.985Z,23.96
2019-04-03T12:55:17.435Z,23.94
2019-04-03T12:57:47.178Z,23.93
2019-04-03T13:00:17.578Z,23.99
2019-04-03T13:02:47.024Z,23.98
2019-04-03T13:05:16.483Z,24.00
2019-04-03T13:07:47.272Z,23.99
2019-04-03T13:10:17.026Z,24.03
2019-04-03T13:12:46.522Z,24.02
2019-04-03T13:15:15.956Z,24.02
2019-04-03T13:17:45.423Z,24.04
2019-04-03T13:20:14.975Z,24.00
2019-04-03T13:22:44.447Z,24.04
2019-04-03T13:25:14.014Z,24.01
2019-04-03T13:27:43.427Z,23.99
2019-04-03T13:30:13.743Z,24.05
2019-04-03T13:32:43.312Z,24.01
2019-04-03T13:35:15.024Z,23.98
2019-04-03T13:37:44.393Z,23.99
2019-04-03T13:40:13.841Z,23.99
2019-04-03T13:42:43.280Z,24.00
2019-04-03T13:45:12.732Z,24.00
2019-04-03T13:47:46.286Z,24.00
2019-04-03T13:50:13.857Z,23.99
2019-04-03T13:52:47.987Z,23.99
2019-04-03T13:55:14.569Z,24.00
2019-04-03T13:57:44.002Z,23.99
2019-04-03T14:00:20.975Z,23.82
2019-04-03T14:02:47.130Z,24.01
2019-04-03T14:05:16.701Z,24.01
2019-04-03T14:07:46.202Z,24.00
2019-04-03T14:10:15.680Z,24.01
2019-04-03T14:12:45.802Z,23.99
2019-04-03T14:15:15.574Z,23.95
2019-04-03T14:17:55.252Z,24.08
2019-04-03T14:20:16.466Z,24.16
2019-04-03T14:22:46.525Z,24.23
2019-04-03T14:25:20.633Z,24.29
2019-04-03T14:27:47.267Z,24.27
2019-04-03T14:30:17.098Z,24.27
2019-04-03T14:32:46.564Z,24.24
2019-04-03T14:35:44.557Z,24.20
2019-04-03T14:37:47.187Z,24.27
2019-04-03T14:40:16.767Z,24.15
2019-04-03T14:42:46.448Z,24.17
2019-04-03T14:45:15.995Z,24.20
2019-04-03T14:47:45.504Z,24.18
2019-04-03T14:50:15.172Z,24.30
2019-04-03T14:52:47.656Z,24.26
2019-04-03T14:55:19.925Z,24.19
2019-04-03T14:57:47.509Z,24.13
2019-04-03T15:00:26.830Z,24.11
2019-04-03T15:02:49.133Z,24.08
2019-04-03T15:05:18.733Z,24.06
2019-04-03T15:07:50.587Z,24.04
2019-04-03T15:10:19.802Z,24.03
2019-04-03T15:12:49.355Z,24.00
2019-04-03T15:15:19.173Z,24.00
2019-04-03T15:17:48.841Z,23.98
2019-04-03T15:20:19.181Z,24.03
2019-04-03T15:22:49.485Z,24.01
2019-04-03T15:25:20.714Z,24.11
2019-04-03T15:27:50.517Z,24.11
2019-04-03T15:30:19.905Z,24.04
2019-04-03T15:32:51.861Z,24.04
2019-04-03T15:35:20.781Z,24.01
2019-04-03T15:37:50.413Z,23.98
2019-04-03T15:40:19.874Z,24.01
2019-04-03T15:42:49.339Z,24.00
2019-04-03T15:45:19.043Z,23.99
2019-04-03T15:47:48.571Z,23.97
2019-04-03T15:50:19.822Z,23.97
2019-04-03T15:52:59.646Z,23.97
2019-04-03T15:55:29.506Z,23.99
2019-04-03T15:57:59.258Z,23.97
2019-04-03T16:00:28.760Z,23.97
2019-04-03T16:02:58.233Z,23.97
2019-04-03T16:05:29.614Z,23.97
2019-04-03T16:07:58.872Z,23.97
2019-04-03T16:10:28.333Z,23.95
2019-04-03T16:12:58.082Z,23.97
2019-04-03T16:15:27.801Z,23.94
2019-04-03T16:18:07.130Z,23.95
2019-04-03T16:20:34.717Z,23.97
2019-04-03T16:23:04.643Z,23.94
2019-04-03T16:25:34.691Z,23.94
2019-04-03T16:28:04.127Z,23.93
2019-04-03T16:30:34.147Z,23.93
2019-04-03T16:33:04.957Z,24.01
2019-04-03T16:35:34.805Z,23.94
2019-04-03T16:38:04.571Z,24.00
2019-04-03T16:40:37.013Z,23.95
2019-04-03T16:43:05.487Z,23.99
2019-04-03T16:45:37.638Z,23.98
2019-04-03T16:48:06.604Z,23.96
2019-04-03T16:50:36.117Z,23.97
2019-04-03T16:53:07.469Z,23.97
2019-04-03T16:55:37.835Z,23.96
2019-04-03T16:58:10.064Z,23.95
2019-04-03T17:00:40.926Z,23.94
2019-04-03T17:03:11.057Z,23.94
2019-04-03T17:05:41.510Z,23.97
2019-04-03T17:08:12.323Z,23.91
2019-04-03T17:10:42.399Z,23.93
2019-04-03T17:13:12.151Z,23.92
2019-04-03T17:15:42.040Z,23.94
2019-04-03T17:18:11.618Z,23.94
2019-04-03T17:20:41.714Z,23.93
2019-04-03T17:23:12.817Z,23.95
2019-04-03T17:25:47.707Z,24.01
2019-04-03T17:28:14.022Z,24.04
2019-04-03T17:30:43.427Z,24.01
2019-04-03T17:33:13.229Z,24.10
2019-04-03T17:35:46.043Z,24.10
2019-04-03T17:38:14.384Z,24.10
2019-04-03T17:40:44.010Z,24.10
2019-04-03T17:43:16.778Z,24.11
2019-04-03T17:45:49.681Z,24.04
2019-04-03T17:48:19.193Z,24.11
2019-04-03T17:50:48.905Z,24.06
2019-04-03T17:53:18.425Z,24.05
2019-04-03T17:55:47.892Z,24.06
2019-04-03T17:58:17.489Z,24.04
2019-04-03T18:00:47.174Z,24.09
2019-04-03T18:03:19.273Z,24.09
2019-04-03T18:05:48.029Z,24.09
2019-04-03T18:08:18.444Z,24.09
2019-04-03T18:10:50.564Z,24.11
2019-04-03T18:13:20.046Z,24.17
2019-04-03T18:15:49.497Z,24.07
2019-04-03T18:18:19.004Z,24.09
2019-04-03T18:20:48.846Z,24.09
2019-04-03T18:23:19.891Z,24.05
2019-04-03T18:25:50.157Z,24.07
2019-04-03T18:28:21.098Z,24.12
2019-04-03T18:30:50.840Z,24.05
2019-04-03T18:33:20.290Z,24.05
2019-04-03T18:35:49.886Z,24.07
2019-04-03T18:38:19.628Z,24.07
2019-04-03T18:40:49.167Z,24.04
2019-04-03T18:43:21.631Z,24.04
2019-04-03T18:45:49.787Z,24.01
2019-04-03T18:48:19.304Z,24.05
2019-04-03T18:50:48.751Z,23.97
2019-04-03T18:53:18.251Z,23.92
2019-04-03T18:55:47.809Z,23.92
2019-04-03T18:58:17.250Z,23.87
2019-04-03T19:00:46.739Z,23.86
2019-04-03T19:03:16.194Z,23.89
2019-04-03T19:05:45.647Z,23.88
2019-04-03T19:08:17.807Z,23.87
2019-04-03T19:10:46.376Z,23.92
2019-04-03T19:13:16.175Z,23.95
2019-04-03T19:15:45.660Z,23.91
2019-04-03T19:18:19.749Z,23.95
2019-04-03T19:20:46.337Z,23.97
2019-04-03T19:23:15.808Z,23.94
2019-04-03T19:25:45.690Z,23.91
2019-04-03T19:28:15.143Z,23.96
2019-04-03T19:30:44.638Z,23.93
2019-04-03T19:33:14.594Z,24.01
2019-04-03T19:35:44.109Z,24.00
2019-04-03T19:38:13.555Z,24.01
2019-04-03T19:40:42.989Z,24.03
2019-04-03T19:43:14.546Z,24.03
2019-04-03T19:45:43.649Z,24.08
2019-04-03T19:48:13.083Z,24.05
2019-04-03T19:50:42.514Z,24.06
2019-04-03T19:53:13.418Z,24.05
2019-04-03T19:55:43.157Z,24.05
2019-04-03T19:58:12.598Z,24.03
2019-04-03T20:00:42.063Z,24.06
2019-04-03T20:03:13.687Z,24.06
2019-04-03T20:05:44.077Z,24.04
2019-04-03T20:08:13.583Z,24.07
2019-04-03T20:10:43.060Z,24.06
2019-04-03T20:13:12.496Z,24.07
2019-04-03T20:15:41.986Z,24.05
2019-04-03T20:18:11.442Z,24.07
2019-04-03T20:20:40.883Z,24.06
2019-04-03T20:23:10.683Z,24.06
2019-04-03T20:25:40.658Z,24.06
2019-04-03T20:28:10.398Z,24.03
2019-04-03T20:30:39.895Z,24.04
2019-04-03T20:33:11.427Z,24.04
2019-04-03T20:35:40.580Z,24.03
2019-04-03T20:38:10.017Z,24.01
2019-04-03T20:40:39.974Z,24.01
2019-04-03T20:43:11.359Z,24.03
2019-04-03T20:45:40.607Z,24.03
2019-04-03T20:48:10.094Z,24.01
2019-04-03T20:50:39.531Z,24.01
2019-04-03T20:53:08.953Z,24.00
2019-04-03T20:55:38.382Z,24.01
2019-04-03T20:58:07.819Z,24.00
2019-04-03T21:00:37.238Z,24.04
2019-04-03T21:03:06.666Z,24.01
2019-04-03T21:05:36.146Z,23.97
2019-04-03T21:08:05.585Z,24.01
2019-04-03T21:10:35.070Z,24.04
2019-04-03T21:13:04.503Z,24.01
2019-04-03T21:15:33.945Z,24.01
2019-04-03T21:18:03.367Z,23.99
2019-04-03T21:20:32.827Z,23.99
2019-04-03T21:23:03.572Z,24.01
2019-04-03T21:25:35.629Z,24.00
2019-04-03T21:28:04.590Z,24.00
2019-04-03T21:30:34.015Z,23.98
2019-04-03T21:33:03.435Z,23.99
2019-04-03T21:35:35.168Z,23.99
2019-04-03T21:38:04.404Z,23.98
2019-04-03T21:40:33.876Z,24.00
2019-04-03T21:43:03.297Z,23.97
2019-04-03T21:45:32.728Z,23.99
2019-04-03T21:48:02.165Z,23.99
2019-04-03T21:50:31.627Z,23.95
2019-04-03T21:53:01.070Z,23.96
2019-04-03T21:55:30.974Z,23.97
2019-04-03T21:58:00.912Z,23.96
2019-04-03T22:01:09.945Z,23.95
2019-04-03T22:03:39.367Z,23.98
2019-04-03T22:06:08.809Z,23.94
2019-04-03T22:08:38.274Z,23.95
2019-04-03T22:11:08.076Z,23.95
2019-04-03T22:13:38.421Z,23.94
2019-04-03T22:16:08.654Z,23.94
2019-04-03T22:18:38.244Z,23.99
2019-04-03T22:21:07.909Z,23.96
2019-04-03T22:23:37.482Z,23.98
2019-04-03T22:26:09.586Z,23.95
2019-04-03T22:28:38.682Z,23.92
2019-04-03T22:31:08.323Z,23.95
2019-04-03T22:33:37.968Z,23.93
2019-04-03T22:36:07.667Z,23.91
2019-04-03T22:38:37.644Z,23.91
2019-04-03T22:41:07.257Z,23.91
2019-04-03T22:43:36.835Z,23.94
2019-04-03T22:46:06.459Z,23.94
2019-04-03T22:48:36.041Z,23.93
2019-04-03T22:51:06.929Z,23.90
2019-04-03T22:53:37.317Z,23.91
2019-04-03T22:56:06.924Z,23.90
2019-04-03T22:58:36.512Z,23.87
2019-04-03T23:01:06.124Z,23.87
2019-04-03T23:03:35.692Z,23.89
2019-04-03T23:06:05.292Z,23.89
2019-04-03T23:08:34.931Z,23.87
2019-04-03T23:11:04.613Z,23.87
2019-04-03T23:13:35.682Z,23.89
2019-04-03T23:16:05.532Z,23.87
2019-04-03T23:18:35.193Z,23.88
2019-04-03T23:21:04.826Z,23.90
2019-04-03T23:23:34.398Z,23.86
2019-04-03T23:26:03.980Z,23.88
2019-04-03T23:28:34.032Z,23.87
2019-04-03T23:31:04.214Z,23.88
2019-04-03T23:33:33.804Z,23.90
2019-04-03T23:36:03.472Z,23.87
2019-04-03T23:38:33.072Z,23.88
2019-04-03T23:41:04.217Z,23.84
2019-04-03T23:43:33.970Z,23.89
2019-04-03T23:46:03.563Z,23.89
2019-04-03T23:48:33.167Z,23.88
2019-04-03T23:51:02.763Z,23.90
2019-04-03T23:53:32.759Z,23.89
2019-04-03T23:56:02.398Z,23.89
2019-04-03T23:58:32.029Z,23.88
